Rebun Maru No.3 — 7JNN — position and weather

sailwx.info

Track history (hours):
 
Tides and Currents Weather Stations Pressure Air Temp Water Temp Dewpoint Dewpoint Depression Visibility Wind Speed Wind Dir Waves Ship Positions

Rebun Maru No.3

Last reported at 2018-Jan-18 19:30 UTC. Time now 2018-Jan-18 19:56 UTC.
Position N 34°56' E 140°07'.

Length 81 m; draft 5 m.

Type: Tanker. MMSI: 431004095.

Date/timePositionNaut miles runAvg speedWind from/ knotsBaromVisibWave heightAir tempDewpointWater temp
2018-Jan-18 19:30N 34°56' E 140°07'  
2018-Jan-12 10:04N 41°26' E 141°33'113.8
2018-Jan-12 09:58N 41°27' E 141°32'714.7
2018-Jan-12 09:30N 41°34' E 141°29'713.4
2018-Jan-12 09:00N 41°39' E 141°24'713.5
2018-Jan-12 08:28N 41°46' E 141°19'713.5
2018-Jan-12 07:58N 41°52' E 141°15'2 0.1
2018-Jan-11 12:59N 41°53' E 141°14'612.7
2018-Jan-11 12:30N 41°48' E 141°18'611.5
2018-Jan-11 12:00N 41°43' E 141°22'611.4
2018-Jan-11 11:27N 41°38' E 141°26'611.8
2018-Jan-11 10:58N 41°32' E 141°29'511.2
2018-Jan-11 10:29N 41°28' E 141°33'813.3
2018-Jan-11 09:53N 41°20' E 141°34'713.4
2018-Jan-11 09:22N 41°13' E 141°35'  
Track history (hours):
 
Tides and Currents Weather Stations Pressure Air Temp Water Temp Dewpoint Dewpoint Depression Visibility Wind Speed Wind Dir Waves Ship Positions

Rebun Maru No.3

Last reported at 2018-Jan-18 19:30 UTC. Time now 2018-Jan-18 19:56 UTC.
Position N 34°56' E 140°07'.

Length 81 m; draft 5 m.

Type: Tanker. MMSI: 431004095.

Date/timePositionNaut miles runAvg speedWind from/ knotsBaromVisibWave heightAir tempDewpointWater temp
2018-Jan-18 19:30N 34°56' E 140°07'  
2018-Jan-12 10:04N 41°26' E 141°33'113.8
2018-Jan-12 09:58N 41°27' E 141°32'714.7
2018-Jan-12 09:30N 41°34' E 141°29'713.4
2018-Jan-12 09:00N 41°39' E 141°24'713.5
2018-Jan-12 08:28N 41°46' E 141°19'713.5
2018-Jan-12 07:58N 41°52' E 141°15'2 0.1
2018-Jan-11 12:59N 41°53' E 141°14'612.7
2018-Jan-11 12:30N 41°48' E 141°18'611.5
2018-Jan-11 12:00N 41°43' E 141°22'611.4
2018-Jan-11 11:27N 41°38' E 141°26'611.8
2018-Jan-11 10:58N 41°32' E 141°29'511.2
2018-Jan-11 10:29N 41°28' E 141°33'813.3
2018-Jan-11 09:53N 41°20' E 141°34'713.4
2018-Jan-11 09:22N 41°13' E 141°35'  

Dump ship's entire track history